DEMBA EDWJ-EDWY

Flight info

Callsign DEMBA
Flight time -1h -28m
Altitude 1000
Route VFR EDWJ EDWY
Aircraft C172

Departure

Time 2022-03-06 19:31
Airport Juist Airport (EDWJ)

Arrival

Time 2022-03-06 19:03
Airport Norderney Airport (EDWY)
Time Latitude Longitude Altitude Speed Heading
2022-03-06 19:02z 53.68178 7.05616 12 0 162
2022-03-06 19:08z 53.68171 7.05619 11 5 175
2022-03-06 19:08z 53.68148 7.05557 11 9 256
2022-03-06 19:09z 53.68123 7.05382 14 0 256
2022-03-06 19:10z 53.68059 7.05155 12 9 101
2022-03-06 19:11z 53.68162 7.05972 37 75 78
2022-03-06 19:11z 53.68255 7.06852 268 75 75
2022-03-06 19:12z 53.68593 7.08567 665 82 41
2022-03-06 19:12z 53.69935 7.08425 659 101 334
2022-03-06 19:13z 53.70063 7.04712 551 114 269
2022-03-06 19:13z 53.69335 7.02787 549 113 178
2022-03-06 19:14z 53.68065 7.03601 362 86 119
2022-03-06 19:14z 53.67977 7.04531 224 78 82
2022-03-06 19:15z 53.68238 7.06432 212 87 75
2022-03-06 19:15z 53.68623 7.0829 417 80 45
2022-03-06 19:16z 53.69711 7.08262 341 88 341
2022-03-06 19:16z 53.70142 7.06581 369 98 265
2022-03-06 19:17z 53.69599 7.03522 491 87 230
2022-03-06 19:17z 53.68328 7.03204 350 88 159
2022-03-06 19:18z 53.67983 7.03929 142 78 99
2022-03-06 19:18z 53.68114 7.05593 35 77 76
2022-03-06 19:19z 53.68335 7.07505 369 92 79
2022-03-06 19:19z 53.68482 7.09635 578 91 85
2022-03-06 19:20z 53.68604 7.11845 736 94 85
2022-03-06 19:20z 53.68627 7.14289 621 114 86
2022-03-06 19:21z 53.68556 7.17536 393 82 88
2022-03-06 19:21z 53.68601 7.19251 327 68 75
2022-03-06 19:22z 53.69259 7.19991 390 63 13
2022-03-06 19:22z 53.69708 7.20116 393 68 9
2022-03-06 19:23z 53.7055 7.2076 442 71 68
2022-03-06 19:23z 53.70666 7.22541 459 74 81
2022-03-06 19:24z 53.70752 7.24232 509 75 80
2022-03-06 19:24z 53.70795 7.25101 559 72 97
2022-03-06 19:24z 53.69785 7.25448 565 84 173
2022-03-06 19:25z 53.68127 7.23714 658 81 242
2022-03-06 19:26z 53.67493 7.22137 718 81 242
2022-03-06 19:26z 53.67286 7.21315 760 75 280
2022-03-06 19:27z 53.67986 7.20096 689 78 342
2022-03-06 19:27z 53.69479 7.1989 457 72 6
2022-03-06 19:28z 53.69975 7.20012 407 71 13
2022-03-06 19:28z 53.70603 7.21038 319 73 79
2022-03-06 19:29z 53.70722 7.23716 165 76 83
2022-03-06 19:29z 53.70813 7.25475 516 91 95
2022-03-06 19:30z 53.70298 7.25967 603 102 193
2022-03-06 19:30z 53.68945 7.23556 808 111 262
2022-03-06 19:31z 53.6865 7.20922 862 116 266
2022-03-06 19:31z 53.68526 7.18195 813 122 276
2022-03-06 19:32z 53.68582 7.1677 751 121 279
2022-03-06 19:32z 53.68747 7.13888 572 119 282
2022-03-06 19:33z 53.6917 7.0996 674 107 289
2022-03-06 19:34z 53.69512 7.07485 696 112 282
2022-03-06 19:34z 53.69513 7.0466 561 111 271
2022-03-06 19:34z 53.69443 7.03603 555 88 266
2022-03-06 19:35z 53.68045 7.03766 197 69 105
2022-03-06 19:35z 53.67992 7.04534 96 64 80
2022-03-06 19:36z 53.68174 7.0601 178 70 73
2022-03-06 19:36z 53.68504 7.07807 489 89 70
2022-03-06 19:37z 53.6898 7.11258 475 110 78
2022-03-06 19:38z 53.6916 7.13852 414 114 83
2022-03-06 19:38z 53.69282 7.16429 345 103 86
2022-03-06 19:39z 53.69323 7.18797 394 92 85
2022-03-06 19:39z 53.70125 7.2008 302 85 17
2022-03-06 19:39z 53.70587 7.20641 314 86 61
2022-03-06 19:40z 53.7067 7.22511 12 73 81
2022-03-06 19:40z 53.70703 7.23239 8 21 84
2022-03-06 19:41z 53.70388 7.25458 377 86 132
2022-03-06 19:42z 53.69261 7.26136 379 90 189
2022-03-06 19:42z 53.68831 7.24447 327 84 281
2022-03-06 19:43z 53.68845 7.22535 327 79 282
2022-03-06 19:43z 53.68949 7.21601 280 82 293
2022-03-06 19:44z 53.69981 7.20141 341 65 9
2022-03-06 19:44z 53.70439 7.20268 307 71 36
2022-03-06 19:44z 53.70646 7.21797 172 66 87
2022-03-06 19:45z 53.70773 7.22873 7 5 284
2022-03-06 19:45z 53.70767 7.22802 9 7 264
2022-03-06 19:46z 53.70775 7.22698 10 7 80
2022-03-06 19:46z 53.70779 7.22727 9 0 77